sensor_id;sensor_type;location;lat;lon;timestamp;pressure;altitude;pressure_sealevel;temperature;humidity
76156;BME280;64906;51.290;7.348;2023-04-01T00:01:37;96493.25;;;19.87;42.87
76156;BME280;64906;51.290;7.348;2023-04-01T00:04:02;96499.88;;;19.86;43.08
76156;BME280;64906;51.290;7.348;2023-04-01T00:06:28;96499.06;;;19.86;42.81
76156;BME280;64906;51.290;7.348;2023-04-01T00:08:53;96491.19;;;19.84;43.13
76156;BME280;64906;51.290;7.348;2023-04-01T00:11:18;96493.59;;;19.86;42.88
76156;BME280;64906;51.290;7.348;2023-04-01T00:13:44;96486.19;;;19.86;43.04
76156;BME280;64906;51.290;7.348;2023-04-01T00:16:10;96500.22;;;19.85;43.05
76156;BME280;64906;51.290;7.348;2023-04-01T00:18:36;96500.56;;;19.83;42.89
76156;BME280;64906;51.290;7.348;2023-04-01T00:21:01;96496.66;;;19.84;42.82
76156;BME280;64906;51.290;7.348;2023-04-01T00:23:26;96492.69;;;19.82;42.85
76156;BME280;64906;51.290;7.348;2023-04-01T00:25:52;96498.94;;;19.82;43.17
76156;BME280;64906;51.290;7.348;2023-04-01T00:28:18;96479.78;;;19.82;42.85
76156;BME280;64906;51.290;7.348;2023-04-01T00:30:44;96489.97;;;19.82;43.02
76156;BME280;64906;51.290;7.348;2023-04-01T00:33:10;96479.66;;;19.79;43.01
76156;BME280;64906;51.290;7.348;2023-04-01T00:35:36;96472.72;;;19.81;43.28
76156;BME280;64906;51.290;7.348;2023-04-01T00:38:02;96485.94;;;19.79;42.96
76156;BME280;64906;51.290;7.348;2023-04-01T00:40:31;96483.22;;;19.79;43.21
76156;BME280;64906;51.290;7.348;2023-04-01T00:42:57;96476.94;;;19.79;43.04
76156;BME280;64906;51.290;7.348;2023-04-01T00:45:46;96478.53;;;19.80;43.17
76156;BME280;64906;51.290;7.348;2023-04-01T00:48:18;96474.53;;;19.77;43.18
76156;BME280;64906;51.290;7.348;2023-04-01T00:50:50;96471.81;;;19.77;42.87
76156;BME280;64906;51.290;7.348;2023-04-01T00:53:18;96480.00;;;19.77;43.12
76156;BME280;64906;51.290;7.348;2023-04-01T00:55:50;96483.44;;;19.74;42.97
76156;BME280;64906;51.290;7.348;2023-04-01T00:58:18;96476.38;;;19.73;43.38
76156;BME280;64906;51.290;7.348;2023-04-01T01:00:48;96474.41;;;19.74;43.18
76156;BME280;64906;51.290;7.348;2023-04-01T01:03:14;96473.66;;;19.73;43.12
76156;BME280;64906;51.290;7.348;2023-04-01T01:08:59;96475.22;;;19.74;43.10
76156;BME280;64906;51.290;7.348;2023-04-01T01:11:54;96474.41;;;19.74;42.98
76156;BME280;64906;51.290;7.348;2023-04-01T01:17:17;96471.59;;;19.70;43.28
76156;BME280;64906;51.290;7.348;2023-04-01T01:29:06;96472.03;;;19.72;43.08
76156;BME280;64906;51.290;7.348;2023-04-01T01:37:01;96462.47;;;19.66;43.30
76156;BME280;64906;51.290;7.348;2023-04-01T01:39:30;96453.09;;;19.67;43.46
76156;BME280;64906;51.290;7.348;2023-04-01T01:41:59;96458.91;;;19.66;43.03
76156;BME280;64906;51.290;7.348;2023-04-01T01:44:28;96467.94;;;19.66;43.19
76156;BME280;64906;51.290;7.348;2023-04-01T01:46:55;96454.72;;;19.68;43.04
76156;BME280;64906;51.290;7.348;2023-04-01T01:49:22;96461.66;;;19.66;43.11
76156;BME280;64906;51.290;7.348;2023-04-01T01:51:48;96453.78;;;19.64;43.20
76156;BME280;64906;51.290;7.348;2023-04-01T01:54:15;96450.28;;;19.64;43.21
76156;BME280;64906;51.290;7.348;2023-04-01T01:56:44;96446.03;;;19.66;43.03
76156;BME280;64906;51.290;7.348;2023-04-01T01:59:14;96453.78;;;19.64;43.16
76156;BME280;64906;51.290;7.348;2023-04-01T02:01:42;96450.63;;;19.62;43.25
76156;BME280;64906;51.290;7.348;2023-04-01T02:04:10;96450.63;;;19.62;43.03
76156;BME280;64906;51.290;7.348;2023-04-01T02:06:38;96456.09;;;19.62;43.21
76156;BME280;64906;51.290;7.348;2023-04-01T02:09:07;96456.09;;;19.62;43.15
76156;BME280;64906;51.290;7.348;2023-04-01T02:14:15;96461.09;;;19.60;43.02
76156;BME280;64906;51.290;7.348;2023-04-01T02:16:49;96480.25;;;19.60;43.27
76156;BME280;64906;51.290;7.348;2023-04-01T02:19:18;96468.50;;;19.60;43.26
76156;BME280;64906;51.290;7.348;2023-04-01T02:21:50;96472.75;;;19.57;43.22
76156;BME280;64906;51.290;7.348;2023-04-01T02:24:17;96471.25;;;19.60;43.10
76156;BME280;64906;51.290;7.348;2023-04-01T02:26:44;96480.25;;;19.60;43.28
76156;BME280;64906;51.290;7.348;2023-04-01T02:29:11;96471.25;;;19.60;43.26
76156;BME280;64906;51.290;7.348;2023-04-01T02:31:37;96463.84;;;19.60;43.15
76156;BME280;64906;51.290;7.348;2023-04-01T02:34:03;96460.63;;;19.58;43.20
76156;BME280;64906;51.290;7.348;2023-04-01T02:36:29;96458.72;;;19.59;43.08
76156;BME280;64906;51.290;7.348;2023-04-01T02:38:55;96465.31;;;19.58;43.22
76156;BME280;64906;51.290;7.348;2023-04-01T02:41:20;96457.09;;;19.58;43.27
76156;BME280;64906;51.290;7.348;2023-04-01T02:43:46;96466.13;;;19.58;43.24
76156;BME280;64906;51.290;7.348;2023-04-01T02:46:11;96461.78;;;19.57;43.27
76156;BME280;64906;51.290;7.348;2023-04-01T02:48:36;96458.25;;;19.57;42.97
76156;BME280;64906;51.290;7.348;2023-04-01T02:51:36;96457.56;;;19.60;43.16
76156;BME280;64906;51.290;7.348;2023-04-01T02:54:01;96460.19;;;19.56;43.26
76156;BME280;64906;51.290;7.348;2023-04-01T02:56:26;96451.97;;;19.56;43.10
76156;BME280;64906;51.290;7.348;2023-04-01T02:58:53;96460.53;;;19.55;43.34
76156;BME280;64906;51.290;7.348;2023-04-01T03:01:18;96454.69;;;19.56;43.43
76156;BME280;64906;51.290;7.348;2023-04-01T03:03:44;96455.84;;;19.55;43.32
76156;BME280;64906;51.290;7.348;2023-04-01T03:06:12;96448.78;;;19.54;43.45
76156;BME280;64906;51.290;7.348;2023-04-01T03:08:38;96459.41;;;19.56;43.27
76156;BME280;64906;51.290;7.348;2023-04-01T03:11:04;96462.44;;;19.54;43.20
76156;BME280;64906;51.290;7.348;2023-04-01T03:13:30;96455.84;;;19.55;43.14
76156;BME280;64906;51.290;7.348;2023-04-01T03:15:55;96456.97;;;19.54;43.11
76156;BME280;64906;51.290;7.348;2023-04-01T03:18:21;96452.66;;;19.53;43.24
76156;BME280;64906;51.290;7.348;2023-04-01T03:20:46;96457.66;;;19.51;43.26
76156;BME280;64906;51.290;7.348;2023-04-01T03:23:12;96451.75;;;19.49;43.42
76156;BME280;64906;51.290;7.348;2023-04-01T03:25:37;96460.75;;;19.50;43.38
76156;BME280;64906;51.290;7.348;2023-04-01T03:28:03;96450.16;;;19.48;43.45
76156;BME280;64906;51.290;7.348;2023-04-01T03:30:28;96459.50;;;19.47;43.59
76156;BME280;64906;51.290;7.348;2023-04-01T03:32:56;96456.44;;;19.49;43.28
76156;BME280;64906;51.290;7.348;2023-04-01T03:35:21;96460.28;;;19.48;43.73
76156;BME280;64906;51.290;7.348;2023-04-01T03:37:46;96460.63;;;19.46;43.31
76156;BME280;64906;51.290;7.348;2023-04-01T03:40:12;96464.16;;;19.47;43.17
76156;BME280;64906;51.290;7.348;2023-04-01T03:42:38;96466.09;;;19.46;43.46
76156;BME280;64906;51.290;7.348;2023-04-01T03:45:04;96466.09;;;19.46;43.49
76156;BME280;64906;51.290;7.348;2023-04-01T03:47:29;96473.53;;;19.46;43.41
76156;BME280;64906;51.290;7.348;2023-04-01T03:49:55;96481.41;;;19.47;43.50
76156;BME280;64906;51.290;7.348;2023-04-01T03:52:21;96472.72;;;19.45;43.39
76156;BME280;64906;51.290;7.348;2023-04-01T03:54:46;96468.84;;;19.46;43.53
76156;BME280;64906;51.290;7.348;2023-04-01T03:57:11;96474.31;;;19.46;43.25
76156;BME280;64906;51.290;7.348;2023-04-01T03:59:37;96480.59;;;19.47;43.42
76156;BME280;64906;51.290;7.348;2023-04-01T04:02:02;96480.25;;;19.48;43.47
76156;BME280;64906;51.290;7.348;2023-04-01T04:04:28;96482.97;;;19.48;43.41
76156;BME280;64906;51.290;7.348;2023-04-01T04:06:55;96486.19;;;19.50;43.40
76156;BME280;64906;51.290;7.348;2023-04-01T04:09:20;96476.47;;;19.53;43.48
76156;BME280;64906;51.290;7.348;2023-04-01T04:11:46;96479.22;;;19.53;43.50
76156;BME280;64906;51.290;7.348;2023-04-01T04:14:11;96484.13;;;19.59;43.54
76156;BME280;64906;51.290;7.348;2023-04-01T04:16:36;96486.09;;;19.59;43.54
76156;BME280;64906;51.290;7.348;2023-04-01T04:19:03;96478.66;;;19.59;43.58
76156;BME280;64906;51.290;7.348;2023-04-01T04:21:28;96491.09;;;19.57;43.62
76156;BME280;64906;51.290;7.348;2023-04-01T04:23:53;96485.72;;;19.60;43.60
76156;BME280;64906;51.290;7.348;2023-04-01T04:26:19;96484.25;;;19.63;43.59
76156;BME280;64906;51.290;7.348;2023-04-01T04:28:44;96489.84;;;19.66;43.40
76156;BME280;64906;51.290;7.348;2023-04-01T04:31:09;96493.72;;;19.65;43.51
76156;BME280;64906;51.290;7.348;2023-04-01T04:33:35;96489.38;;;19.64;43.63
76156;BME280;64906;51.290;7.348;2023-04-01T04:36:01;96498.03;;;19.66;43.62
76156;BME280;64906;51.290;7.348;2023-04-01T04:38:27;96503.53;;;19.66;43.71
76156;BME280;64906;51.290;7.348;2023-04-01T04:40:52;96502.38;;;19.67;43.31
76156;BME280;64906;51.290;7.348;2023-04-01T04:43:18;96497.34;;;19.69;43.84
76156;BME280;64906;51.290;7.348;2023-04-01T04:45:44;96510.34;;;19.72;43.74
76156;BME280;64906;51.290;7.348;2023-04-01T04:48:14;96505.69;;;19.73;43.67
76156;BME280;64906;51.290;7.348;2023-04-01T04:50:50;96508.06;;;19.74;44.00
76156;BME280;64906;51.290;7.348;2023-04-01T04:53:17;96505.81;;;19.76;43.91
76156;BME280;64906;51.290;7.348;2023-04-01T04:55:44;96505.13;;;19.79;43.73
76156;BME280;64906;51.290;7.348;2023-04-01T04:58:10;96503.06;;;19.76;43.77
76156;BME280;64906;51.290;7.348;2023-04-01T05:00:35;96503.53;;;19.78;43.78
76156;BME280;64906;51.290;7.348;2023-04-01T05:03:01;96508.31;;;19.81;44.00
76156;BME280;64906;51.290;7.348;2023-04-01T05:05:26;96501.56;;;19.79;44.21
76156;BME280;64906;51.290;7.348;2023-04-01T05:07:51;96505.56;;;19.81;43.82
76156;BME280;64906;51.290;7.348;2023-04-01T05:10:17;96504.44;;;19.82;44.11
76156;BME280;64906;51.290;7.348;2023-04-01T05:12:43;96509.91;;;19.82;44.18
76156;BME280;64906;51.290;7.348;2023-04-01T05:15:08;96511.50;;;19.83;44.01
76156;BME280;64906;51.290;7.348;2023-04-01T05:17:34;96513.44;;;19.83;44.21
76156;BME280;64906;51.290;7.348;2023-04-01T05:19:59;96513.09;;;19.84;44.21
76156;BME280;64906;51.290;7.348;2023-04-01T05:22:25;96519.38;;;19.85;44.11
76156;BME280;64906;51.290;7.348;2023-04-01T05:24:50;96524.50;;;19.86;44.18
76156;BME280;64906;51.290;7.348;2023-04-01T05:27:16;96521.78;;;19.86;44.08
76156;BME280;64906;51.290;7.348;2023-04-01T05:29:41;96524.50;;;19.86;44.28
76156;BME280;64906;51.290;7.348;2023-04-01T05:32:06;96515.84;;;19.84;44.01
76156;BME280;64906;51.290;7.348;2023-04-01T05:34:32;96524.16;;;19.88;44.27
76156;BME280;64906;51.290;7.348;2023-04-01T05:36:57;96524.88;;;19.85;44.05
76156;BME280;64906;51.290;7.348;2023-04-01T05:39:22;96528.84;;;19.87;44.53
76156;BME280;64906;51.290;7.348;2023-04-01T05:41:48;96522.91;;;19.85;44.44
76156;BME280;64906;51.290;7.348;2023-04-01T05:44:13;96529.66;;;19.88;44.36
76156;BME280;64906;51.290;7.348;2023-04-01T05:46:39;96530.00;;;19.86;44.33
76156;BME280;64906;51.290;7.348;2023-04-01T05:49:04;96533.19;;;19.88;44.45
76156;BME280;64906;51.290;7.348;2023-04-01T05:51:30;96527.25;;;19.86;44.80
76156;BME280;64906;51.290;7.348;2023-04-01T05:53:55;96539.78;;;19.87;44.92
76156;BME280;64906;51.290;7.348;2023-04-01T05:56:20;96543.34;;;19.88;44.90
76156;BME280;64906;51.290;7.348;2023-04-01T05:58:50;96544.91;;;19.89;44.82
76156;BME280;64906;51.290;7.348;2023-04-01T06:01:16;96540.47;;;19.84;44.92
76156;BME280;64906;51.290;7.348;2023-04-01T06:03:43;96540.47;;;19.84;45.11
76156;BME280;64906;51.290;7.348;2023-04-01T06:06:18;96539.78;;;19.87;44.84
76156;BME280;64906;51.290;7.348;2023-04-01T06:08:45;96532.38;;;19.88;45.01
76156;BME280;64906;51.290;7.348;2023-04-01T06:11:25;96536.72;;;19.89;44.84
76156;BME280;64906;51.290;7.348;2023-04-01T06:25:34;96550.75;;;19.87;45.11
76156;BME280;64906;51.290;7.348;2023-04-01T06:31:07;96552.44;;;19.92;44.78
76156;BME280;64906;51.290;7.348;2023-04-01T06:33:39;96564.56;;;19.91;44.88
76156;BME280;64906;51.290;7.348;2023-04-01T06:41:52;96560.44;;;19.97;44.45
76156;BME280;64906;51.290;7.348;2023-04-01T06:44:43;96562.75;;;19.95;44.68
76156;BME280;64906;51.290;7.348;2023-04-01T06:47:45;96563.53;;;19.95;44.68
76156;BME280;64906;51.290;7.348;2023-04-01T06:50:29;96559.53;;;19.93;44.73
76156;BME280;64906;51.290;7.348;2023-04-01T06:55:47;96562.41;;;19.96;44.46
76156;BME280;64906;51.290;7.348;2023-04-01T06:58:23;96560.09;;;19.98;44.29
76156;BME280;64906;51.290;7.348;2023-04-01T07:01:02;96567.66;;;20.01;44.49
76156;BME280;64906;51.290;7.348;2023-04-01T07:03:49;96575.97;;;20.05;44.07
76156;BME280;64906;51.290;7.348;2023-04-01T07:06:32;96568.88;;;20.04;44.15
76156;BME280;64906;51.290;7.348;2023-04-01T07:09:04;96573.13;;;20.01;44.21
76156;BME280;64906;51.290;7.348;2023-04-01T07:11:35;96571.16;;;20.02;44.09
76156;BME280;64906;51.290;7.348;2023-04-01T07:14:06;96581.78;;;20.03;44.39
76156;BME280;64906;51.290;7.348;2023-04-01T07:16:42;96581.13;;;20.07;44.39
76156;BME280;64906;51.290;7.348;2023-04-01T07:19:12;96573.69;;;20.07;44.20
76156;BME280;64906;51.290;7.348;2023-04-01T07:21:46;96578.03;;;20.08;44.29
76156;BME280;64906;51.290;7.348;2023-04-01T07:24:22;96578.03;;;20.08;44.03
76156;BME280;64906;51.290;7.348;2023-04-01T07:26:55;96582.34;;;20.09;44.12
76156;BME280;64906;51.290;7.348;2023-04-01T07:29:21;96591.38;;;20.10;44.12
76156;BME280;64906;51.290;7.348;2023-04-01T07:32:07;96598.34;;;20.07;44.34
76156;BME280;64906;51.290;7.348;2023-04-01T07:34:54;96591.38;;;20.10;44.24
76156;BME280;64906;51.290;7.348;2023-04-01T07:53:21;96604.84;;;20.02;44.91
76156;BME280;64906;51.290;7.348;2023-04-01T08:01:13;96613.41;;;20.13;44.44
76156;BME280;64906;51.290;7.348;2023-04-01T08:09:55;96623.56;;;20.13;44.95
76156;BME280;64906;51.290;7.348;2023-04-01T08:12:27;96623.22;;;20.14;44.84
76156;BME280;64906;51.290;7.348;2023-04-01T08:15:09;96622.41;;;20.14;44.90
76156;BME280;64906;51.290;7.348;2023-04-01T08:17:49;96628.03;;;20.17;44.98
76156;BME280;64906;51.290;7.348;2023-04-01T08:20:39;96634.31;;;20.18;44.50
76156;BME280;64906;51.290;7.348;2023-04-01T08:25:39;96634.53;;;20.13;44.68
76156;BME280;64906;51.290;7.348;2023-04-01T08:30:48;96636.59;;;20.16;44.51
76156;BME280;64906;51.290;7.348;2023-04-01T08:33:27;96643.66;;;20.17;44.94
76156;BME280;64906;51.290;7.348;2023-04-01T08:39:13;96648.16;;;20.21;44.67
76156;BME280;64906;51.290;7.348;2023-04-01T08:52:47;96665.84;;;20.36;45.24
76156;BME280;64906;51.290;7.348;2023-04-01T08:58:41;96673.72;;;20.37;44.74
76156;BME280;64906;51.290;7.348;2023-04-01T09:04:39;96678.75;;;20.35;44.43
76156;BME280;64906;51.290;7.348;2023-04-01T09:07:37;96677.94;;;20.35;44.42
76156;BME280;64906;51.290;7.348;2023-04-01T09:18:49;96686.63;;;20.37;44.28
76156;BME280;64906;51.290;7.348;2023-04-01T09:27:04;96706.72;;;20.41;44.15
76156;BME280;64906;51.290;7.348;2023-04-01T09:32:54;96705.56;;;20.42;44.05
76156;BME280;64906;51.290;7.348;2023-04-01T09:38:35;96711.75;;;20.39;44.14
76156;BME280;64906;51.290;7.348;2023-04-01T09:44:18;96720.88;;;20.43;44.15
76156;BME280;64906;51.290;7.348;2023-04-01T09:54:58;96726.69;;;20.41;44.29
76156;BME280;64906;51.290;7.348;2023-04-01T09:57:54;96737.31;;;20.43;43.94
76156;BME280;64906;51.290;7.348;2023-04-01T10:01:23;96746.69;;;20.42;44.23
76156;BME280;64906;51.290;7.348;2023-04-01T10:03:54;96740.38;;;20.41;44.19
76156;BME280;64906;51.290;7.348;2023-04-01T10:06:44;96742.78;;;20.43;44.13
76156;BME280;64906;51.290;7.348;2023-04-01T10:15:00;96745.22;;;20.44;44.10
76156;BME280;64906;51.290;7.348;2023-04-01T10:18:44;96751.47;;;20.45;43.97
76156;BME280;64906;51.290;7.348;2023-04-01T10:21:08;96756.19;;;20.44;43.99
76156;BME280;64906;51.290;7.348;2023-04-01T10:27:13;96766.00;;;20.45;43.78
76156;BME280;64906;51.290;7.348;2023-04-01T10:30:05;96756.41;;;20.39;44.03
76156;BME280;64906;51.290;7.348;2023-04-01T10:35:28;96765.78;;;20.50;43.68
76156;BME280;64906;51.290;7.348;2023-04-01T10:46:45;96779.13;;;20.52;43.54
76156;BME280;64906;51.290;7.348;2023-04-01T11:01:32;96774.13;;;20.54;43.56
76156;BME280;64906;51.290;7.348;2023-04-01T11:04:42;96782.00;;;20.55;43.51
76156;BME280;64906;51.290;7.348;2023-04-01T11:07:43;96789.06;;;20.44;43.65
76156;BME280;64906;51.290;7.348;2023-04-01T11:18:38;96799.69;;;20.58;43.57
76156;BME280;64906;51.290;7.348;2023-04-01T11:21:42;96800.50;;;20.58;43.33
76156;BME280;64906;51.290;7.348;2023-04-01T11:27:10;96808.59;;;20.55;43.60
76156;BME280;64906;51.290;7.348;2023-04-01T11:32:37;96808.84;;;20.62;43.27
76156;BME280;64906;51.290;7.348;2023-04-01T11:35:19;96808.72;;;20.58;43.45
76156;BME280;64906;51.290;7.348;2023-04-01T11:49:51;96827.69;;;20.63;43.47
76156;BME280;64906;51.290;7.348;2023-04-01T11:55:25;96828.84;;;20.62;43.35
76156;BME280;64906;51.290;7.348;2023-04-01T12:00:52;96844.63;;;20.65;43.47
76156;BME280;64906;51.290;7.348;2023-04-01T12:04:11;96846.88;;;20.63;43.16
76156;BME280;64906;51.290;7.348;2023-04-01T12:06:48;96854.66;;;20.61;43.52
76156;BME280;64906;51.290;7.348;2023-04-01T12:12:37;96858.53;;;20.60;43.31
76156;BME280;64906;51.290;7.348;2023-04-01T12:18:05;96857.38;;;20.61;43.46
76156;BME280;64906;51.290;7.348;2023-04-01T12:23:06;96873.03;;;20.61;43.32
76156;BME280;64906;51.290;7.348;2023-04-01T12:25:38;96861.28;;;20.60;43.54
76156;BME280;64906;51.290;7.348;2023-04-01T12:30:51;96866.16;;;20.55;43.51
76156;BME280;64906;51.290;7.348;2023-04-01T12:33:31;96877.25;;;20.58;43.54
76156;BME280;64906;51.290;7.348;2023-04-01T12:36:09;96880.81;;;20.59;43.49
76156;BME280;64906;51.290;7.348;2023-04-01T12:39:14;96879.66;;;20.60;43.32
76156;BME280;64906;51.290;7.348;2023-04-01T12:45:02;96895.28;;;20.59;43.39
76156;BME280;64906;51.290;7.348;2023-04-01T12:56:02;96903.88;;;20.58;43.42
76156;BME280;64906;51.290;7.348;2023-04-01T12:58:44;96904.66;;;20.58;43.72
76156;BME280;64906;51.290;7.348;2023-04-01T13:01:52;96906.94;;;20.56;43.57
76156;BME280;64906;51.290;7.348;2023-04-01T13:07:40;96901.13;;;20.58;43.74
76156;BME280;64906;51.290;7.348;2023-04-01T13:10:19;96916.44;;;20.59;43.78
76156;BME280;64906;51.290;7.348;2023-04-01T13:26:37;96932.56;;;20.60;43.68
76156;BME280;64906;51.290;7.348;2023-04-01T13:32:20;96938.81;;;20.61;43.59
76156;BME280;64906;51.290;7.348;2023-04-01T13:37:41;96952.09;;;20.59;43.39
76156;BME280;64906;51.290;7.348;2023-04-01T13:43:28;96955.16;;;20.57;43.45
76156;BME280;64906;51.290;7.348;2023-04-01T14:00:03;96964.97;;;20.58;43.60
76156;BME280;64906;51.290;7.348;2023-04-01T14:05:20;96971.63;;;20.57;43.58
76156;BME280;64906;51.290;7.348;2023-04-01T14:08:13;96965.66;;;20.55;43.36
76156;BME280;64906;51.290;7.348;2023-04-01T14:10:47;96977.44;;;20.56;43.46
76156;BME280;64906;51.290;7.348;2023-04-01T14:16:23;96974.69;;;20.56;43.41
76156;BME280;64906;51.290;7.348;2023-04-01T14:19:12;96984.50;;;20.57;43.04
76156;BME280;64906;51.290;7.348;2023-04-01T14:28:08;96996.63;;;20.56;43.13
76156;BME280;64906;51.290;7.348;2023-04-01T14:30:46;96986.78;;;20.55;43.23
76156;BME280;64906;51.290;7.348;2023-04-01T14:33:33;96995.81;;;20.55;43.14
76156;BME280;64906;51.290;7.348;2023-04-01T14:36:28;97002.41;;;20.54;43.43
76156;BME280;64906;51.290;7.348;2023-04-01T14:47:56;97002.75;;;20.53;43.15
76156;BME280;64906;51.290;7.348;2023-04-01T14:50:25;97006.66;;;20.52;43.39
76156;BME280;64906;51.290;7.348;2023-04-01T14:52:59;97005.50;;;20.53;43.14
76156;BME280;64906;51.290;7.348;2023-04-01T14:55:34;97012.59;;;20.54;43.38
76156;BME280;64906;51.290;7.348;2023-04-01T15:00:59;97009.53;;;20.55;43.00
76156;BME280;64906;51.290;7.348;2023-04-01T15:03:39;97009.38;;;20.52;43.16
76156;BME280;64906;51.290;7.348;2023-04-01T15:06:42;97019.53;;;20.51;43.34
76156;BME280;64906;51.290;7.348;2023-04-01T15:12:36;97015.22;;;20.50;43.42
76156;BME280;64906;51.290;7.348;2023-04-01T15:18:09;97028.09;;;20.50;43.20
76156;BME280;64906;51.290;7.348;2023-04-01T15:20:53;97034.72;;;20.49;43.25
76156;BME280;64906;51.290;7.348;2023-04-01T15:26:07;97044.53;;;20.50;43.31
76156;BME280;64906;51.290;7.348;2023-04-01T15:28:40;97038.25;;;20.49;43.13
76156;BME280;64906;51.290;7.348;2023-04-01T15:31:18;97035.84;;;20.48;43.07
76156;BME280;64906;51.290;7.348;2023-04-01T15:33:55;97053.91;;;20.49;42.85
76156;BME280;64906;51.290;7.348;2023-04-01T15:36:40;97054.25;;;20.47;42.99
76156;BME280;64906;51.290;7.348;2023-04-01T15:44:45;97060.53;;;20.48;42.93
76156;BME280;64906;51.290;7.348;2023-04-01T15:58:33;97075.22;;;20.43;43.10
76156;BME280;64906;51.290;7.348;2023-04-01T16:04:11;97077.81;;;20.40;42.99
76156;BME280;64906;51.290;7.348;2023-04-01T16:06:43;97086.53;;;20.42;43.23
76156;BME280;64906;51.290;7.348;2023-04-01T16:09:28;97088.47;;;20.41;43.22
76156;BME280;64906;51.290;7.348;2023-04-01T16:12:19;97098.31;;;20.42;42.96
76156;BME280;64906;51.290;7.348;2023-04-01T16:15:09;97092.00;;;20.42;43.23
76156;BME280;64906;51.290;7.348;2023-04-01T16:20:23;97096.22;;;20.39;42.89
76156;BME280;64906;51.290;7.348;2023-04-01T16:22:58;97103.16;;;20.37;43.03
76156;BME280;64906;51.290;7.348;2023-04-01T16:25:39;97098.16;;;20.39;42.95
76156;BME280;64906;51.290;7.348;2023-04-01T16:28:27;97113.47;;;20.40;42.86
76156;BME280;64906;51.290;7.348;2023-04-01T16:33:39;97114.59;;;20.39;43.12
76156;BME280;64906;51.290;7.348;2023-04-01T16:36:39;97108.31;;;20.38;42.96
76156;BME280;64906;51.290;7.348;2023-04-01T16:39:33;97108.16;;;20.35;42.89
76156;BME280;64906;51.290;7.348;2023-04-01T16:50:23;97124.16;;;20.33;43.07
76156;BME280;64906;51.290;7.348;2023-04-01T16:52:57;97133.97;;;20.34;42.99
76156;BME280;64906;51.290;7.348;2023-04-01T16:55:43;97133.50;;;20.32;42.92
76156;BME280;64906;51.290;7.348;2023-04-01T16:58:18;97140.94;;;20.31;42.88
76156;BME280;64906;51.290;7.348;2023-04-01T17:01:00;97147.19;;;20.32;43.08
76156;BME280;64906;51.290;7.348;2023-04-01T17:03:44;97140.13;;;20.31;42.79
76156;BME280;64906;51.290;7.348;2023-04-01T17:15:39;97167.53;;;20.31;42.93
76156;BME280;64906;51.290;7.348;2023-04-01T17:18:05;97164.31;;;20.29;42.81
76156;BME280;64906;51.290;7.348;2023-04-01T17:20:36;97173.69;;;20.28;43.17
76156;BME280;64906;51.290;7.348;2023-04-01T17:23:29;97176.09;;;20.29;43.14
76156;BME280;64906;51.290;7.348;2023-04-01T17:40:37;97190.91;;;20.28;42.99
76156;BME280;64906;51.290;7.348;2023-04-01T17:48:18;97205.75;;;20.27;42.95
76156;BME280;64906;51.290;7.348;2023-04-01T17:56:41;97218.19;;;20.25;43.11
76156;BME280;64906;51.290;7.348;2023-04-01T18:02:26;97237.34;;;20.25;42.98
76156;BME280;64906;51.290;7.348;2023-04-01T18:05:30;97235.72;;;20.24;43.18
76156;BME280;64906;51.290;7.348;2023-04-01T18:08:12;97240.41;;;20.23;42.98
76156;BME280;64906;51.290;7.348;2023-04-01T18:10:54;97243.97;;;20.24;42.93
76156;BME280;64906;51.290;7.348;2023-04-01T18:13:33;97250.56;;;20.23;43.12
76156;BME280;64906;51.290;7.348;2023-04-01T18:16:30;97252.19;;;20.24;43.45
76156;BME280;64906;51.290;7.348;2023-04-01T18:21:53;97261.53;;;20.23;42.99
76156;BME280;64906;51.290;7.348;2023-04-01T18:24:43;97259.59;;;20.23;43.14
76156;BME280;64906;51.290;7.348;2023-04-01T18:27:21;97267.50;;;20.25;43.09
76156;BME280;64906;51.290;7.348;2023-04-01T18:30:01;97265.06;;;20.23;43.00
76156;BME280;64906;51.290;7.348;2023-04-01T18:32:44;97267.81;;;20.23;42.89
76156;BME280;64906;51.290;7.348;2023-04-01T18:38:31;97282.66;;;20.22;42.98
76156;BME280;64906;51.290;7.348;2023-04-01T18:44:16;97291.19;;;20.21;43.15
76156;BME280;64906;51.290;7.348;2023-04-01T18:47:05;97295.53;;;20.22;42.85
76156;BME280;64906;51.290;7.348;2023-04-01T18:49:55;97293.94;;;20.21;42.89
76156;BME280;64906;51.290;7.348;2023-04-01T18:52:26;97294.75;;;20.21;42.98
76156;BME280;64906;51.290;7.348;2023-04-01T18:57:52;97310.38;;;20.21;42.99
76156;BME280;64906;51.290;7.348;2023-04-01T19:00:26;97302.16;;;20.21;43.04
76156;BME280;64906;51.290;7.348;2023-04-01T19:03:07;97315.03;;;20.20;42.92
76156;BME280;64906;51.290;7.348;2023-04-01T19:05:38;97315.84;;;20.21;43.03
76156;BME280;64906;51.290;7.348;2023-04-01T19:13:36;97330.22;;;20.18;43.05
76156;BME280;64906;51.290;7.348;2023-04-01T19:16:12;97327.47;;;20.18;43.11
76156;BME280;64906;51.290;7.348;2023-04-01T19:30:23;97354.53;;;20.02;43.25
76156;BME280;64906;51.290;7.348;2023-04-01T19:33:07;97348.72;;;20.12;43.19
76156;BME280;64906;51.290;7.348;2023-04-01T19:38:39;97350.34;;;20.13;42.98
76156;BME280;64906;51.290;7.348;2023-04-01T19:44:04;97364.81;;;20.14;42.88
76156;BME280;64906;51.290;7.348;2023-04-01T19:46:44;97373.03;;;20.14;42.95
76156;BME280;64906;51.290;7.348;2023-04-01T19:52:39;97376.09;;;20.12;42.92
76156;BME280;64906;51.290;7.348;2023-04-01T19:55:22;97378.53;;;20.14;43.05
76156;BME280;64906;51.290;7.348;2023-04-01T20:00:31;97379.16;;;20.11;42.84
76156;BME280;64906;51.290;7.348;2023-04-01T20:03:04;97384.66;;;20.11;42.85
76156;BME280;64906;51.290;7.348;2023-04-01T20:05:40;97386.25;;;20.12;42.62
76156;BME280;64906;51.290;7.348;2023-04-01T20:08:24;97388.53;;;20.10;42.66
76156;BME280;64906;51.290;7.348;2023-04-01T20:16:40;97401.41;;;20.09;42.80
76156;BME280;64906;51.290;7.348;2023-04-01T20:19:12;97413.84;;;20.07;43.12
76156;BME280;64906;51.290;7.348;2023-04-01T20:21:41;97418.00;;;20.04;43.12
76156;BME280;64906;51.290;7.348;2023-04-01T20:24:18;97413.84;;;20.07;42.91
76156;BME280;64906;51.290;7.348;2023-04-01T20:26:53;97426.41;;;20.08;42.98